Time;durP1;ratioP1;P1;durP2;ratioP2;P2;SDS_P1;SDS_P2;PMS_P1;PMS_P2;Temp;Humidity;BMP_temperature;BMP_pressure;BME280_temperature;BME280_humidity;BME280_pressure;Samples;Min_cycle;Max_cycle;Signal;HPM_P1;HPM_P2
2021/11/03 00:01:36;;;;;;;12.50;10.10;;;9.50;91.70;;;;;;5058419;28;20202;-87
2021/11/03 00:04:03;;;;;;;11.70;10.07;;;9.50;90.60;;;;;;5052244;28;20169;-87
2021/11/03 00:06:32;;;;;;;12.37;9.93;;;9.30;91.40;;;;;;5044877;28;20225;-88
2021/11/03 00:08:58;;;;;;;12.83;10.30;;;9.30;93.20;;;;;;5045258;28;20526;-87
2021/11/03 00:11:28;;;;;;;14.50;10.27;;;9.20;93.80;;;;;;5043800;28;20205;-87
2021/11/03 00:13:56;;;;;;;13.73;10.60;;;9.30;93.00;;;;;;5040159;28;20638;-86
2021/11/03 00:16:28;;;;;;;14.50;10.97;;;9.40;92.50;;;;;;5037367;28;20218;-86
2021/11/03 00:18:57;;;;;;;14.20;10.67;;;9.50;90.90;;;;;;5036481;28;20284;-86
2021/11/03 00:21:35;;;;;;;15.43;10.57;;;9.40;90.30;;;;;;5035496;28;20228;-87
2021/11/03 00:24:29;;;;;;;11.97;10.67;;;9.50;90.30;;;;;;5035960;28;20630;-86
2021/11/03 00:26:57;;;;;;;15.40;11.13;;;9.40;90.40;;;;;;5036585;28;20221;-87
2021/11/03 00:29:23;;;;;;;15.57;11.80;;;9.50;90.60;;;;;;5037227;28;20220;-87
2021/11/03 00:31:49;;;;;;;13.13;10.93;;;9.50;89.00;;;;;;5036294;28;20264;-87
2021/11/03 00:34:17;;;;;;;12.43;10.63;;;9.60;86.40;;;;;;5036046;28;20198;-88
2021/11/03 00:36:42;;;;;;;14.50;10.70;;;9.60;84.80;;;;;;5036363;28;20188;-87
2021/11/03 00:39:08;;;;;;;14.33;10.53;;;9.50;84.60;;;;;;5035967;28;20612;-87
2021/11/03 00:41:34;;;;;;;11.77;10.47;;;9.30;89.80;;;;;;5037194;28;20224;-89
2021/11/03 00:44:00;;;;;;;12.07;10.67;;;9.30;91.70;;;;;;5039943;28;20189;-87
2021/11/03 00:46:25;;;;;;;13.70;10.27;;;9.30;92.50;;;;;;5058654;28;20225;-88
2021/11/03 00:48:52;;;;;;;12.07;10.50;;;9.30;92.60;;;;;;5059285;28;20193;-87
2021/11/03 00:51:19;;;;;;;13.30;10.67;;;9.30;92.90;;;;;;5059334;28;20173;-89
2021/11/03 00:53:57;;;;;;;14.43;10.60;;;9.30;93.20;;;;;;5058692;28;20173;-88
2021/11/03 00:56:29;;;;;;;16.70;10.43;;;9.40;93.60;;;;;;5042336;28;20631;-88
2021/11/03 00:58:54;;;;;;;13.40;10.10;;;9.30;93.70;;;;;;5041781;28;20174;-88
2021/11/03 01:01:21;;;;;;;10.07;8.77;;;9.40;93.90;;;;;;5041080;28;20270;-87
2021/11/03 01:10:31;;;;;;;10.73;8.73;;;9.00;94.70;;;;;;5037134;28;20267;-88
2021/11/03 01:13:06;;;;;;;14.40;9.40;;;8.70;95.90;;;;;;5035968;28;20178;-87
2021/11/03 01:15:38;;;;;;;12.17;9.93;;;8.60;97.90;;;;;;5037587;28;20284;-87
2021/11/03 01:21:26;;;;;;;13.50;10.10;;;8.50;99.10;;;;;;5041392;28;20185;-87
2021/11/03 01:23:58;;;;;;;13.00;10.00;;;8.70;99.90;;;;;;5058663;28;20176;-84
2021/11/03 01:29:46;;;;;;;15.10;10.97;;;8.40;99.90;;;;;;5049251;28;20177;-87
2021/11/03 01:32:24;;;;;;;13.43;9.93;;;8.50;99.90;;;;;;5038441;28;20181;-86
2021/11/03 01:35:05;;;;;;;17.53;11.77;;;8.60;99.90;;;;;;5039345;28;20213;-87
2021/11/03 01:37:36;;;;;;;15.17;10.67;;;8.60;99.90;;;;;;5041643;28;20193;-87
2021/11/03 01:40:07;;;;;;;15.07;10.60;;;8.80;99.90;;;;;;5043669;28;20205;-86
2021/11/03 01:42:36;;;;;;;16.23;11.23;;;8.70;99.90;;;;;;5044012;28;20692;-86
2021/11/03 01:45:08;;;;;;;14.17;10.53;;;8.80;99.90;;;;;;5043223;28;20264;-87
2021/11/03 01:48:25;;;;;;;17.23;10.80;;;8.90;99.90;;;;;;5043975;28;20217;-88
2021/11/03 01:50:54;;;;;;;13.43;10.40;;;9.00;99.90;;;;;;5036412;28;20174;-87
2021/11/03 01:53:30;;;;;;;14.77;10.53;;;8.90;99.90;;;;;;5035193;28;20193;-88
2021/11/03 01:56:08;;;;;;;15.40;10.10;;;9.10;99.90;;;;;;5035265;28;20176;-88
2021/11/03 01:59:14;;;;;;;12.73;10.50;;;9.30;99.80;;;;;;5035143;28;20251;-88
2021/11/03 02:02:01;;;;;;;14.23;9.50;;;9.30;99.10;;;;;;5040359;28;20177;-87
2021/11/03 02:04:29;;;;;;;14.03;10.30;;;9.40;98.30;;;;;;5045027;28;20177;-87
2021/11/03 02:07:00;;;;;;;14.43;10.17;;;9.40;97.90;;;;;;5046664;28;20224;-87
2021/11/03 02:09:32;;;;;;;13.97;10.43;;;9.40;97.70;;;;;;5044443;28;20220;-87
2021/11/03 02:12:05;;;;;;;13.90;9.83;;;9.40;97.20;;;;;;5043128;28;20579;-87
2021/11/03 02:14:34;;;;;;;13.67;10.30;;;9.60;96.00;;;;;;5043941;28;20170;-87
2021/11/03 02:17:05;;;;;;;11.70;9.10;;;9.60;93.90;;;;;;5042637;28;20196;-87
2021/11/03 02:19:35;;;;;;;14.23;10.23;;;9.60;93.80;;;;;;5043733;28;20208;-87
2021/11/03 02:22:24;;;;;;;12.40;9.23;;;9.40;94.30;;;;;;5043238;28;20255;-87
2021/11/03 02:25:16;;;;;;;11.77;9.37;;;9.30;94.90;;;;;;5048253;28;20312;-87
2021/11/03 02:27:50;;;;;;;13.80;9.50;;;9.30;95.70;;;;;;5042950;28;20217;-87
2021/11/03 02:30:31;;;;;;;12.23;9.67;;;9.50;95.70;;;;;;5044927;28;20165;-87
2021/11/03 02:33:03;;;;;;;11.70;9.90;;;9.40;95.20;;;;;;5044432;28;20271;-86
2021/11/03 02:35:32;;;;;;;13.60;9.47;;;9.10;95.60;;;;;;5046445;28;20276;-88
2021/11/03 02:37:59;;;;;;;12.57;9.63;;;9.10;96.60;;;;;;5047311;28;20161;-87
2021/11/03 02:40:46;;;;;;;13.63;10.73;;;9.10;96.60;;;;;;5045748;28;20177;-87
2021/11/03 02:43:51;;;;;;;12.00;8.90;;;9.10;96.50;;;;;;5046296;28;20189;-87
2021/11/03 02:46:18;;;;;;;10.27;8.70;;;9.00;97.40;;;;;;5062063;28;20201;-85
2021/11/03 02:48:48;;;;;;;12.07;9.50;;;8.90;97.70;;;;;;5062366;28;20238;-87
2021/11/03 02:51:39;;;;;;;14.37;10.17;;;9.00;97.70;;;;;;5062020;28;20178;-86
2021/11/03 02:54:19;;;;;;;13.37;9.60;;;8.80;97.80;;;;;;5062091;28;20241;-88
2021/11/03 02:56:50;;;;;;;13.47;9.93;;;8.70;98.40;;;;;;5061628;28;20200;-89
2021/11/03 02:59:19;;;;;;;12.13;9.20;;;8.70;98.30;;;;;;5061687;28;20219;-87
2021/11/03 03:01:48;;;;;;;11.90;8.93;;;8.70;98.30;;;;;;5061216;28;20241;-88
2021/11/03 03:04:19;;;;;;;12.67;9.53;;;8.80;98.00;;;;;;5062161;28;20157;-89
2021/11/03 03:06:45;;;;;;;12.30;9.27;;;8.80;97.40;;;;;;5061104;28;20201;-90
2021/11/03 03:09:11;;;;;;;13.47;9.23;;;8.70;97.30;;;;;;5062027;28;20158;-87
2021/11/03 03:11:39;;;;;;;12.30;9.17;;;8.50;97.70;;;;;;5060939;28;20180;-89
2021/11/03 03:14:08;;;;;;;13.23;9.20;;;8.30;98.70;;;;;;5060621;28;20170;-86
2021/11/03 03:16:37;;;;;;;12.17;9.53;;;8.20;99.70;;;;;;5060802;28;20209;-88
2021/11/03 03:19:03;;;;;;;12.93;8.70;;;8.20;99.90;;;;;;5060922;28;20189;-85
2021/11/03 03:21:30;;;;;;;13.10;8.90;;;8.10;99.90;;;;;;5060350;28;20177;-88
2021/11/03 03:23:58;;;;;;;14.03;8.77;;;8.10;99.90;;;;;;5059007;28;20189;-86
2021/11/03 03:26:24;;;;;;;11.63;9.70;;;8.00;99.90;;;;;;5054802;28;20221;-86
2021/11/03 03:28:51;;;;;;;11.40;8.93;;;7.70;99.90;;;;;;5059593;28;20216;-85
2021/11/03 03:31:18;;;;;;;12.23;10.10;;;7.60;99.90;;;;;;5060300;28;20185;-84
2021/11/03 03:33:46;;;;;;;13.57;10.93;;;7.60;99.90;;;;;;5059713;28;20182;-86
2021/11/03 03:36:14;;;;;;;13.13;10.03;;;7.50;99.90;;;;;;5060317;28;20193;-87
2021/11/03 03:38:39;;;;;;;11.87;9.97;;;7.60;99.90;;;;;;5060189;28;20249;-86
2021/11/03 03:41:06;;;;;;;12.10;10.20;;;7.80;99.90;;;;;;5058661;28;20201;-86
2021/11/03 03:43:32;;;;;;;12.00;10.30;;;7.60;99.90;;;;;;5047117;28;20193;-86
2021/11/03 03:45:58;;;;;;;13.23;11.77;;;7.60;99.90;;;;;;5041707;28;20706;-86
2021/11/03 03:48:25;;;;;;;16.60;11.07;;;7.50;99.90;;;;;;5041752;28;20186;-86
2021/11/03 03:50:53;;;;;;;12.27;10.67;;;7.50;99.90;;;;;;5051961;28;20162;-88
2021/11/03 03:53:21;;;;;;;14.53;10.83;;;7.60;99.90;;;;;;5059009;28;20178;-87
2021/11/03 03:55:48;;;;;;;13.23;10.40;;;7.50;99.90;;;;;;5057716;28;20246;-86
2021/11/03 03:58:14;;;;;;;15.83;11.23;;;7.50;99.90;;;;;;5058329;28;20211;-86
2021/11/03 04:00:40;;;;;;;12.80;10.50;;;7.40;99.90;;;;;;5053755;28;20231;-87
2021/11/03 04:03:06;;;;;;;13.97;10.27;;;7.40;99.90;;;;;;5038144;28;20677;-87
2021/11/03 04:05:33;;;;;;;15.67;11.33;;;7.20;99.90;;;;;;5039312;28;20178;-86
2021/11/03 04:07:59;;;;;;;13.03;10.57;;;7.30;99.90;;;;;;5036162;28;20196;-87
2021/11/03 04:10:25;;;;;;;14.07;12.00;;;7.50;99.90;;;;;;5039761;28;20272;-86
2021/11/03 04:12:51;;;;;;;14.73;11.60;;;7.70;99.90;;;;;;5035537;28;20273;-87
2021/11/03 04:15:17;;;;;;;13.60;10.43;;;7.70;99.90;;;;;;5023179;28;20224;-87
2021/11/03 04:17:43;;;;;;;13.37;10.73;;;7.80;99.90;;;;;;5035945;28;20213;-88
2021/11/03 04:20:12;;;;;;;13.57;10.57;;;8.10;99.90;;;;;;5036885;28;20641;-87
2021/11/03 04:22:38;;;;;;;13.63;10.03;;;7.80;99.90;;;;;;5036636;28;20221;-87
2021/11/03 04:25:06;;;;;;;12.97;10.27;;;7.70;99.90;;;;;;5035883;28;20567;-87
2021/11/03 04:27:31;;;;;;;14.07;11.33;;;7.50;99.90;;;;;;5035632;28;20228;-86
2021/11/03 04:29:57;;;;;;;14.23;10.57;;;7.60;99.90;;;;;;5035322;28;20177;-87
2021/11/03 04:32:23;;;;;;;13.97;10.80;;;7.60;99.90;;;;;;5035915;28;20178;-88
2021/11/03 04:34:50;;;;;;;12.03;10.27;;;7.50;99.90;;;;;;5036845;28;20196;-88
2021/11/03 04:37:16;;;;;;;14.60;11.07;;;7.60;99.90;;;;;;5035314;28;20247;-87
2021/11/03 04:39:42;;;;;;;13.27;10.37;;;7.60;99.90;;;;;;5035081;28;20185;-88
2021/11/03 04:42:08;;;;;;;15.00;11.00;;;7.60;99.90;;;;;;5035167;28;20597;-87
2021/11/03 04:44:34;;;;;;;16.53;10.60;;;7.70;99.90;;;;;;5035406;28;20193;-88
2021/11/03 04:47:00;;;;;;;14.83;10.73;;;7.70;99.90;;;;;;5035629;28;20222;-88
2021/11/03 04:49:26;;;;;;;12.67;10.93;;;7.70;99.90;;;;;;5036895;28;20194;-86
2021/11/03 04:51:52;;;;;;;13.70;10.93;;;7.80;99.90;;;;;;5021854;28;20200;-87
2021/11/03 04:54:19;;;;;;;13.20;10.83;;;7.90;99.90;;;;;;5036145;28;20189;-87
2021/11/03 04:56:45;;;;;;;13.03;10.40;;;8.00;99.90;;;;;;5035968;28;20343;-88
2021/11/03 04:59:25;;;;;;;12.53;10.87;;;7.90;99.90;;;;;;5036395;28;20231;-86
2021/11/03 05:01:51;;;;;;;13.80;10.63;;;8.00;99.90;;;;;;5047349;28;20185;-86
2021/11/03 05:04:17;;;;;;;11.50;10.30;;;8.10;99.90;;;;;;5048836;28;20186;-87
2021/11/03 05:06:45;;;;;;;13.13;9.80;;;8.00;99.90;;;;;;5049475;28;20782;-90
2021/11/03 05:09:11;;;;;;;12.90;10.90;;;8.10;99.90;;;;;;5044432;28;20201;-88
2021/11/03 05:11:37;;;;;;;15.10;10.87;;;8.00;99.90;;;;;;5027928;28;20230;-87
2021/11/03 05:14:03;;;;;;;13.33;11.00;;;8.00;99.90;;;;;;5044529;28;20185;-87
2021/11/03 05:16:29;;;;;;;12.60;10.60;;;8.00;99.90;;;;;;5036269;28;20185;-87
2021/11/03 05:18:56;;;;;;;13.07;10.23;;;7.90;99.90;;;;;;5036045;28;20201;-87
2021/11/03 05:21:22;;;;;;;16.03;11.07;;;7.90;99.90;;;;;;5036628;28;20185;-87
2021/11/03 05:23:48;;;;;;;14.00;11.73;;;7.80;99.90;;;;;;5035530;28;20185;-87
2021/11/03 05:26:19;;;;;;;15.57;11.23;;;8.00;99.90;;;;;;5034874;28;20217;-88
2021/11/03 05:28:49;;;;;;;14.33;11.23;;;7.80;99.90;;;;;;5034839;28;20197;-88
2021/11/03 05:31:18;;;;;;;14.27;11.23;;;7.70;99.90;;;;;;5035680;28;20585;-87
2021/11/03 05:33:44;;;;;;;14.93;11.20;;;7.60;99.90;;;;;;5035882;28;20193;-85
2021/11/03 05:36:22;;;;;;;16.03;11.97;;;7.40;99.90;;;;;;5036679;28;20221;-87
2021/11/03 05:38:49;;;;;;;14.53;11.60;;;7.60;99.90;;;;;;5036042;28;20192;-87
2021/11/03 05:41:14;;;;;;;14.10;12.00;;;7.30;99.90;;;;;;5035436;28;20517;-88
2021/11/03 05:43:40;;;;;;;13.93;11.93;;;7.20;99.90;;;;;;5035720;28;20217;-87
2021/11/03 05:46:07;;;;;;;13.40;11.47;;;7.10;99.90;;;;;;5034621;28;20221;-87
2021/11/03 05:48:34;;;;;;;16.50;11.60;;;7.10;99.90;;;;;;5036175;28;20178;-88
2021/11/03 05:51:01;;;;;;;13.53;12.13;;;7.10;99.90;;;;;;5035177;28;20217;-87
2021/11/03 05:53:27;;;;;;;15.13;12.03;;;7.10;99.90;;;;;;5035233;28;20209;-87
2021/11/03 05:55:53;;;;;;;14.13;12.63;;;7.00;99.90;;;;;;5034794;28;20514;-87
2021/11/03 05:58:18;;;;;;;14.83;12.30;;;7.20;99.90;;;;;;5034846;28;20188;-89
2021/11/03 06:00:44;;;;;;;15.73;13.20;;;7.10;99.90;;;;;;5034720;28;20185;-87
2021/11/03 06:03:11;;;;;;;14.17;12.60;;;7.10;99.90;;;;;;5035156;28;20182;-86
2021/11/03 06:05:36;;;;;;;15.47;13.57;;;7.10;99.90;;;;;;5035696;28;20205;-87
2021/11/03 06:08:07;;;;;;;15.83;12.73;;;7.10;99.90;;;;;;5035883;28;20642;-86
2021/11/03 06:10:39;;;;;;;16.33;13.47;;;7.00;99.90;;;;;;5034488;28;20181;-87
2021/11/03 06:13:06;;;;;;;17.30;13.13;;;7.00;99.90;;;;;;5034303;28;20216;-88
2021/11/03 06:15:33;;;;;;;16.73;13.20;;;7.10;99.90;;;;;;5018449;28;20576;-86
2021/11/03 06:18:00;;;;;;;16.50;13.13;;;7.00;99.90;;;;;;5034640;28;20202;-86
2021/11/03 06:20:27;;;;;;;15.20;13.13;;;7.10;99.90;;;;;;5034556;28;20185;-87
2021/11/03 06:22:53;;;;;;;16.13;13.23;;;7.00;99.90;;;;;;5038882;28;20540;-88
2021/11/03 06:25:24;;;;;;;17.40;13.53;;;6.90;99.90;;;;;;5036259;28;20177;-86
2021/11/03 06:27:54;;;;;;;14.53;12.90;;;6.90;99.90;;;;;;5040065;28;20217;-86
2021/11/03 06:30:29;;;;;;;17.00;13.77;;;6.80;99.90;;;;;;5038250;28;20528;-87
2021/11/03 06:32:59;;;;;;;17.83;13.80;;;7.00;99.90;;;;;;5039880;28;20238;-86
2021/11/03 06:35:26;;;;;;;14.07;12.37;;;7.00;99.90;;;;;;5022241;28;20185;-87
2021/11/03 06:37:52;;;;;;;14.10;12.57;;;6.90;99.90;;;;;;5036009;28;20184;-88
2021/11/03 06:40:21;;;;;;;19.10;13.43;;;6.90;99.90;;;;;;5035132;28;20186;-88
2021/11/03 06:42:47;;;;;;;18.27;13.87;;;7.00;99.90;;;;;;5036286;28;20276;-87
2021/11/03 06:45:14;;;;;;;16.60;12.87;;;7.10;99.90;;;;;;5043007;28;20181;-88
2021/11/03 06:47:41;;;;;;;16.10;13.20;;;7.00;99.90;;;;;;5048333;28;20252;-88
2021/11/03 06:50:11;;;;;;;14.83;12.53;;;7.00;99.90;;;;;;5050880;28;20181;-87
2021/11/03 06:52:38;;;;;;;18.13;14.03;;;7.30;99.90;;;;;;5054966;28;20188;-89
2021/11/03 06:55:04;;;;;;;16.67;12.90;;;7.10;99.90;;;;;;5055787;28;20182;-86
2021/11/03 06:57:30;;;;;;;19.00;13.57;;;7.20;99.90;;;;;;5054618;28;20170;-87
2021/11/03 06:59:56;;;;;;;18.30;13.03;;;7.20;99.90;;;;;;5056447;28;20170;-85
2021/11/03 07:02:23;;;;;;;18.47;13.97;;;7.10;99.90;;;;;;5053592;28;20185;-86
2021/11/03 07:04:50;;;;;;;21.23;13.47;;;7.00;99.90;;;;;;5035279;28;20670;-87
2021/11/03 07:07:19;;;;;;;16.50;13.90;;;6.90;99.90;;;;;;5035792;28;20223;-85
2021/11/03 07:09:44;;;;;;;16.60;13.90;;;6.90;99.90;;;;;;5037632;28;20178;-87
2021/11/03 07:12:16;;;;;;;19.13;15.07;;;6.80;99.90;;;;;;5035911;28;20325;-86
2021/11/03 07:14:44;;;;;;;18.20;15.67;;;6.90;99.90;;;;;;5035197;28;20186;-86
2021/11/03 07:17:13;;;;;;;18.63;14.87;;;7.00;99.90;;;;;;5036601;28;20185;-87
2021/11/03 07:19:42;;;;;;;17.77;14.10;;;7.00;99.90;;;;;;5035556;28;20311;-87
2021/11/03 07:22:11;;;;;;;21.47;16.07;;;6.80;99.90;;;;;;5035959;28;20189;-89
2021/11/03 07:24:37;;;;;;;18.13;15.27;;;6.70;99.90;;;;;;5035804;28;20186;-87
2021/11/03 07:27:06;;;;;;;17.60;14.00;;;6.70;99.90;;;;;;5035258;28;20267;-87
2021/11/03 07:29:41;;;;;;;19.87;14.87;;;6.70;99.90;;;;;;5038301;28;20178;-87
2021/11/03 07:32:08;;;;;;;20.33;15.13;;;6.70;99.90;;;;;;5038286;28;20335;-87
2021/11/03 07:34:34;;;;;;;18.80;16.10;;;6.60;99.90;;;;;;5041270;28;20182;-86
2021/11/03 07:36:59;;;;;;;20.43;15.70;;;6.70;99.90;;;;;;5042383;28;20190;-88
2021/11/03 07:39:25;;;;;;;18.63;14.23;;;6.70;99.90;;;;;;5041591;28;20192;-88
2021/11/03 07:41:51;;;;;;;18.23;14.57;;;6.70;99.90;;;;;;5043427;28;20209;-87
2021/11/03 07:44:17;;;;;;;20.63;15.03;;;6.70;99.90;;;;;;5056808;28;20193;-87
2021/11/03 07:46:43;;;;;;;20.97;14.37;;;6.90;99.90;;;;;;5057668;28;20224;-87
2021/11/03 07:49:13;;;;;;;20.43;15.93;;;6.70;99.90;;;;;;5057984;28;20607;-88
2021/11/03 07:51:40;;;;;;;19.97;14.63;;;6.90;99.90;;;;;;5058228;28;20181;-86
2021/11/03 07:54:06;;;;;;;17.50;14.80;;;6.80;99.90;;;;;;5048658;28;20194;-88
2021/11/03 07:56:34;;;;;;;20.10;15.17;;;6.80;99.90;;;;;;5049893;28;20181;-87
2021/11/03 07:59:02;;;;;;;17.40;15.20;;;7.00;99.90;;;;;;5049672;28;20185;-87
2021/11/03 08:01:31;;;;;;;19.77;15.73;;;7.00;99.90;;;;;;5047557;28;20182;-88
2021/11/03 08:04:05;;;;;;;20.60;16.63;;;7.10;99.90;;;;;;5041639;28;20641;-89
2021/11/03 08:06:34;;;;;;;20.63;16.47;;;7.20;99.90;;;;;;5042398;28;20237;-88
2021/11/03 08:09:05;;;;;;;23.20;16.67;;;7.30;99.90;;;;;;5045650;28;20216;-88
2021/11/03 08:11:52;;;;;;;25.27;18.33;;;7.40;99.90;;;;;;5029129;28;20276;-86
2021/11/03 08:14:22;;;;;;;24.07;18.10;;;7.60;99.90;;;;;;5039179;28;20672;-89
2021/11/03 08:16:59;;;;;;;20.50;15.83;;;7.60;99.90;;;;;;5038679;28;20174;-87
2021/11/03 08:19:41;;;;;;;20.20;15.97;;;7.90;99.90;;;;;;5037601;28;20193;-87
2021/11/03 08:22:10;;;;;;;21.43;16.77;;;7.60;99.90;;;;;;5038109;28;20220;-88
2021/11/03 08:24:36;;;;;;;19.37;16.33;;;7.80;99.90;;;;;;5038231;28;20272;-87
2021/11/03 08:27:03;;;;;;;18.07;15.80;;;8.00;99.90;;;;;;5037315;28;20681;-87
2021/11/03 08:29:30;;;;;;;22.17;15.63;;;7.90;99.90;;;;;;5036834;28;20178;-88
2021/11/03 08:31:57;;;;;;;20.33;15.40;;;7.90;99.90;;;;;;5037277;28;20293;-87
2021/11/03 08:34:29;;;;;;;19.67;15.07;;;8.10;99.90;;;;;;5016602;28;20178;-86
2021/11/03 08:36:59;;;;;;;23.20;17.77;;;7.90;99.90;;;;;;5017382;28;20710;-88
2021/11/03 08:39:25;;;;;;;18.73;15.43;;;8.00;99.90;;;;;;5018922;28;20240;-87
2021/11/03 08:41:52;;;;;;;18.77;15.63;;;8.20;99.90;;;;;;5016199;28;20213;-88
2021/11/03 08:44:17;;;;;;;17.00;14.97;;;8.10;99.90;;;;;;5017147;28;20183;-89
2021/11/03 08:46:44;;;;;;;21.10;15.37;;;7.80;99.90;;;;;;5018998;28;20214;-89
2021/11/03 08:49:10;;;;;;;20.33;15.03;;;7.60;99.90;;;;;;5017947;28;20186;-87
2021/11/03 08:51:36;;;;;;;20.90;15.10;;;7.50;99.90;;;;;;5017618;28;20182;-87
2021/11/03 08:54:04;;;;;;;19.10;15.17;;;7.50;99.90;;;;;;5017749;28;20308;-88
2021/11/03 08:56:31;;;;;;;22.17;16.30;;;7.50;99.90;;;;;;5019039;28;20170;-87
2021/11/03 08:58:58;;;;;;;21.40;15.13;;;7.50;99.90;;;;;;5019904;28;20182;-87
2021/11/03 09:01:24;;;;;;;22.67;16.97;;;7.60;99.90;;;;;;5016533;28;20220;-88
2021/11/03 09:03:50;;;;;;;21.63;17.17;;;7.60;99.90;;;;;;5017292;28;20183;-89
2021/11/03 09:06:16;;;;;;;22.03;16.97;;;7.80;99.90;;;;;;5018344;28;20214;-86
2021/11/03 09:08:48;;;;;;;20.03;15.97;;;7.90;99.90;;;;;;5017647;28;20179;-87
2021/11/03 09:11:14;;;;;;;21.73;16.40;;;8.00;99.90;;;;;;5017291;28;20198;-87
2021/11/03 09:13:40;;;;;;;19.83;16.17;;;8.00;99.90;;;;;;5019092;28;20174;-87
2021/11/03 09:16:06;;;;;;;22.90;16.80;;;8.00;99.90;;;;;;5016954;28;20245;-88
2021/11/03 09:18:33;;;;;;;18.40;14.73;;;8.00;99.90;;;;;;5016552;28;20761;-88
2021/11/03 09:21:00;;;;;;;19.27;14.83;;;7.90;99.90;;;;;;5018534;28;20205;-88
2021/11/03 09:23:26;;;;;;;21.87;15.70;;;7.70;99.90;;;;;;5000744;28;20718;-88
2021/11/03 09:25:55;;;;;;;18.97;15.80;;;7.90;99.90;;;;;;5016892;28;20224;-87
2021/11/03 09:28:23;;;;;;;22.00;15.90;;;7.70;99.90;;;;;;5016340;28;20218;-86
2021/11/03 09:30:56;;;;;;;20.30;15.93;;;8.00;99.90;;;;;;5019580;28;20170;-87
2021/11/03 09:33:22;;;;;;;22.27;15.67;;;8.00;99.90;;;;;;5017124;28;20178;-89
2021/11/03 09:36:05;;;;;;;21.70;15.23;;;8.30;99.90;;;;;;5016975;28;20186;-88
2021/11/03 09:38:37;;;;;;;17.23;13.67;;;8.10;99.90;;;;;;5015884;28;20174;-88
2021/11/03 09:41:16;;;;;;;20.43;15.27;;;8.00;99.90;;;;;;5017951;28;20213;-89
2021/11/03 09:47:44;;;;;;;18.63;15.00;;;8.00;99.90;;;;;;5018960;28;20252;-88
2021/11/03 09:53:46;;;;;;;25.37;17.43;;;8.50;99.90;;;;;;5017838;28;20166;-86
2021/11/03 09:56:19;;;;;;;22.67;16.10;;;8.70;99.90;;;;;;5019741;28;20208;-86
2021/11/03 09:59:24;;;;;;;20.73;15.63;;;8.80;99.90;;;;;;5020603;28;20249;-90
2021/11/03 10:02:18;;;;;;;18.37;14.67;;;8.90;99.90;;;;;;4938493;29;20185;-88
2021/11/03 10:04:51;;;;;;;17.10;14.93;;;9.00;99.90;;;;;;5014966;28;20189;-87
2021/11/03 10:07:46;;;;;;;19.57;15.73;;;8.90;99.90;;;;;;5015848;28;20241;-87
2021/11/03 10:10:24;;;;;;;19.77;14.47;;;8.90;99.90;;;;;;5015133;28;20285;-87
2021/11/03 10:12:51;;;;;;;18.20;15.47;;;9.00;99.90;;;;;;5015287;28;20209;-90
2021/11/03 10:15:20;;;;;;;19.23;15.50;;;9.00;99.90;;;;;;5000047;28;20698;-89
2021/11/03 10:18:18;;;;;;;17.33;13.60;;;9.10;99.90;;;;;;5016228;28;20225;-90
2021/11/03 10:21:04;;;;;;;18.07;14.83;;;9.10;99.90;;;;;;5011921;28;20521;-89
2021/11/03 10:23:33;;;;;;;16.90;14.53;;;9.00;99.90;;;;;;5017353;28;20182;-88
2021/11/03 10:26:09;;;;;;;16.87;13.00;;;9.10;99.90;;;;;;5017134;28;20186;-89
2021/11/03 10:28:44;;;;;;;20.43;14.70;;;9.00;99.90;;;;;;5014847;28;20190;-88
2021/11/03 10:31:26;;;;;;;19.40;14.17;;;9.00;99.90;;;;;;5014984;28;20232;-88
2021/11/03 10:34:06;;;;;;;19.37;13.43;;;9.10;99.90;;;;;;5016943;28;20185;-89
2021/11/03 10:36:43;;;;;;;15.63;12.03;;;9.10;99.90;;;;;;5015379;28;20181;-89
2021/11/03 10:39:21;;;;;;;18.23;13.47;;;9.00;99.90;;;;;;5015393;28;20201;-89
2021/11/03 10:42:01;;;;;;;19.60;13.93;;;9.00;99.90;;;;;;5014405;28;20551;-88
2021/11/03 10:44:33;;;;;;;16.10;13.43;;;9.00;99.90;;;;;;5026011;28;20189;-87
2021/11/03 10:47:15;;;;;;;17.57;14.43;;;9.10;99.90;;;;;;5035030;28;20228;-90
2021/11/03 10:49:50;;;;;;;22.17;15.50;;;9.00;99.90;;;;;;5034645;28;20260;-88
2021/11/03 10:52:33;;;;;;;19.50;15.10;;;9.00;99.90;;;;;;5035560;28;20633;-90
2021/11/03 10:55:13;;;;;;;21.77;15.03;;;9.00;99.90;;;;;;5035150;28;20192;-89
2021/11/03 10:57:46;;;;;;;20.77;16.23;;;9.00;99.90;;;;;;5035666;28;20215;-86
2021/11/03 11:00:24;;;;;;;19.30;15.83;;;9.20;99.90;;;;;;5037158;28;20323;-89
2021/11/03 11:03:09;;;;;;;19.47;14.63;;;9.10;99.90;;;;;;5035591;28;20201;-88
2021/11/03 11:05:43;;;;;;;23.67;16.17;;;9.20;99.90;;;;;;5036611;28;20177;-88
2021/11/03 11:08:17;;;;;;;22.87;16.00;;;9.20;99.90;;;;;;5039363;28;20259;-88
2021/11/03 11:11:17;;;;;;;20.27;14.90;;;9.30;99.90;;;;;;5039213;28;20180;-88
2021/11/03 11:13:57;;;;;;;24.67;14.40;;;9.30;99.90;;;;;;4963687;28;20267;-88
2021/11/03 11:16:36;;;;;;;17.67;13.00;;;9.40;99.90;;;;;;4964331;28;20187;-87
2021/11/03 11:19:31;;;;;;;22.30;15.13;;;9.40;99.90;;;;;;4964285;28;20207;-88
2021/11/03 11:22:03;;;;;;;17.20;14.03;;;9.40;99.90;;;;;;4967316;28;20219;-88
2021/11/03 11:24:57;;;;;;;20.97;15.17;;;9.30;99.90;;;;;;5045920;28;20614;-87
2021/11/03 11:27:34;;;;;;;20.77;14.17;;;9.30;99.90;;;;;;5038643;28;20235;-89
2021/11/03 11:30:12;;;;;;;19.20;13.73;;;9.40;99.90;;;;;;5039430;28;20181;-88
2021/11/03 11:33:02;;;;;;;15.77;12.77;;;9.60;99.90;;;;;;5037840;28;20210;-89
2021/11/03 11:35:52;;;;;;;16.43;12.47;;;9.60;99.90;;;;;;5037430;28;20276;-88
2021/11/03 11:38:37;;;;;;;18.20;12.67;;;9.60;99.90;;;;;;5038284;28;20182;-91
2021/11/03 11:41:10;;;;;;;18.40;13.23;;;9.50;99.90;;;;;;5040848;28;20204;-91
2021/11/03 11:43:42;;;;;;;21.07;13.40;;;9.60;99.90;;;;;;5040437;28;20208;-90
2021/11/03 11:46:25;;;;;;;17.00;12.57;;;9.70;99.90;;;;;;5039335;28;20185;-90
2021/11/03 11:48:55;;;;;;;20.97;13.67;;;9.80;99.90;;;;;;5022805;28;20257;-92
2021/11/03 11:51:26;;;;;;;15.77;12.27;;;9.80;99.90;;;;;;5039555;28;20178;-90
2021/11/03 11:53:52;;;;;;;15.97;12.43;;;9.90;99.90;;;;;;5037682;28;20185;-90
2021/11/03 11:56:29;;;;;;;16.57;12.70;;;9.90;99.90;;;;;;5039511;28;20556;-91
2021/11/03 11:59:06;;;;;;;15.17;11.90;;;9.80;99.90;;;;;;5039794;28;20304;-90
2021/11/03 12:05:19;;;;;;;17.17;12.20;;;9.60;99.90;;;;;;5040765;28;20566;-93
2021/11/03 12:08:09;;;;;;;22.83;13.97;;;9.70;99.90;;;;;;5040384;28;20236;-88
2021/11/03 12:11:23;;;;;;;14.93;12.77;;;9.80;99.90;;;;;;4978682;28;20196;-91
2021/11/03 12:14:26;;;;;;;15.07;11.73;;;10.00;99.90;;;;;;4962027;28;20481;-87
2021/11/03 12:17:32;;;;;;;22.23;13.70;;;10.00;99.90;;;;;;4967064;28;20194;-88
2021/11/03 12:20:32;;;;;;;21.03;12.67;;;10.20;99.90;;;;;;4966078;28;20180;-87
2021/11/03 12:23:00;;;;;;;18.20;12.67;;;10.20;99.30;;;;;;5005741;28;20190;-88
2021/11/03 12:25:25;;;;;;;17.43;13.43;;;10.20;99.20;;;;;;5040597;28;20184;-89
2021/11/03 12:27:54;;;;;;;16.83;12.27;;;10.10;99.10;;;;;;5039129;28;20308;-86
2021/11/03 12:30:30;;;;;;;16.80;11.77;;;10.20;98.50;;;;;;5048009;28;20223;-90
2021/11/03 12:33:14;;;;;;;17.90;13.27;;;10.10;98.70;;;;;;5051249;28;20174;-88
2021/11/03 12:35:39;;;;;;;17.33;12.87;;;10.20;98.90;;;;;;5052645;28;20192;-90
2021/11/03 12:38:11;;;;;;;18.73;13.97;;;10.40;99.00;;;;;;5051133;28;20241;-87
2021/11/03 12:40:37;;;;;;;17.20;13.40;;;10.50;99.30;;;;;;5053020;28;20193;-88
2021/11/03 12:43:12;;;;;;;17.67;13.70;;;10.60;98.10;;;;;;5051692;28;20182;-89
2021/11/03 12:45:52;;;;;;;16.80;13.20;;;10.60;98.10;;;;;;5051787;28;20203;-89
2021/11/03 12:48:23;;;;;;;14.77;12.13;;;10.70;98.00;;;;;;5048855;28;20664;-88
2021/11/03 12:50:49;;;;;;;14.03;12.57;;;10.80;97.40;;;;;;5047072;28;20182;-88
2021/11/03 12:53:31;;;;;;;17.80;12.47;;;10.70;95.60;;;;;;5049755;28;20208;-87
2021/11/03 12:56:09;;;;;;;17.07;11.90;;;10.80;96.60;;;;;;5049295;28;20197;-88
2021/11/03 12:58:53;;;;;;;15.83;12.10;;;10.70;96.60;;;;;;5039025;28;20189;-88
2021/11/03 13:01:37;;;;;;;17.67;12.63;;;10.80;96.10;;;;;;5039100;28;20673;-88
2021/11/03 13:04:17;;;;;;;17.10;13.17;;;10.70;96.20;;;;;;5037498;28;20214;-89
2021/11/03 13:06:57;;;;;;;19.83;13.97;;;10.80;96.50;;;;;;5037513;28;20213;-90
2021/11/03 13:09:37;;;;;;;12.20;10.80;;;10.70;96.40;;;;;;5037745;28;20202;-87
2021/11/03 13:12:06;;;;;;;13.70;10.20;;;10.90;95.50;;;;;;5037142;28;20189;-88
2021/11/03 13:14:39;;;;;;;16.03;11.67;;;10.90;94.30;;;;;;5037806;28;20209;-88
2021/11/03 13:17:05;;;;;;;14.93;11.17;;;11.00;93.60;;;;;;5036775;28;20553;-89
2021/11/03 13:19:37;;;;;;;13.37;9.60;;;10.90;93.80;;;;;;5037386;28;20293;-89
2021/11/03 13:22:35;;;;;;;13.57;8.50;;;10.90;93.50;;;;;;5036326;28;20240;-89
2021/11/03 13:25:06;;;;;;;15.60;9.13;;;10.90;92.30;;;;;;5028887;28;20318;-88
2021/11/03 13:27:36;;;;;;;16.70;9.67;;;10.80;92.90;;;;;;5038461;28;20220;-89